sensor_id;sensor_type;location;lat;lon;timestamp;P1;durP1;ratioP1;P2;durP2;ratioP2
3463;SDS011;3551;41.578;24.706;2024-03-17T00:00:04;18.50;;;12.33;;
3463;SDS011;3551;41.578;24.706;2024-03-17T00:02:35;21.13;;;12.85;;
3463;SDS011;3551;41.578;24.706;2024-03-17T00:05:02;26.25;;;15.20;;
3463;SDS011;3551;41.578;24.706;2024-03-17T00:07:31;22.15;;;13.00;;
3463;SDS011;3551;41.578;24.706;2024-03-17T00:09:56;28.63;;;13.30;;
3463;SDS011;3551;41.578;24.706;2024-03-17T00:12:23;25.45;;;13.45;;
3463;SDS011;3551;41.578;24.706;2024-03-17T00:14:49;23.37;;;13.10;;
3463;SDS011;3551;41.578;24.706;2024-03-17T00:17:16;22.10;;;11.70;;
3463;SDS011;3551;41.578;24.706;2024-03-17T00:19:42;22.50;;;11.27;;
3463;SDS011;3551;41.578;24.706;2024-03-17T00:22:09;23.25;;;12.10;;
3463;SDS011;3551;41.578;24.706;2024-03-17T00:24:40;22.80;;;12.95;;
3463;SDS011;3551;41.578;24.706;2024-03-17T00:27:09;22.98;;;11.55;;
3463;SDS011;3551;41.578;24.706;2024-03-17T00:29:36;19.98;;;12.15;;
3463;SDS011;3551;41.578;24.706;2024-03-17T00:32:04;24.60;;;13.18;;
3463;SDS011;3551;41.578;24.706;2024-03-17T00:34:31;23.23;;;10.82;;
3463;SDS011;3551;41.578;24.706;2024-03-17T00:36:58;15.18;;;9.50;;
3463;SDS011;3551;41.578;24.706;2024-03-17T00:39:24;20.25;;;9.57;;
3463;SDS011;3551;41.578;24.706;2024-03-17T00:41:53;15.23;;;10.05;;
3463;SDS011;3551;41.578;24.706;2024-03-17T00:44:19;20.30;;;10.95;;
3463;SDS011;3551;41.578;24.706;2024-03-17T00:46:47;18.65;;;10.70;;
3463;SDS011;3551;41.578;24.706;2024-03-17T00:49:13;21.08;;;11.45;;
3463;SDS011;3551;41.578;24.706;2024-03-17T00:51:40;17.80;;;10.40;;
3463;SDS011;3551;41.578;24.706;2024-03-17T00:54:08;26.70;;;11.80;;
3463;SDS011;3551;41.578;24.706;2024-03-17T00:56:35;24.33;;;11.25;;
3463;SDS011;3551;41.578;24.706;2024-03-17T00:59:02;16.83;;;10.00;;
3463;SDS011;3551;41.578;24.706;2024-03-17T01:01:29;18.02;;;10.15;;
3463;SDS011;3551;41.578;24.706;2024-03-17T01:03:55;18.30;;;10.23;;
3463;SDS011;3551;41.578;24.706;2024-03-17T01:06:22;15.57;;;9.93;;
3463;SDS011;3551;41.578;24.706;2024-03-17T01:08:48;17.73;;;9.90;;
3463;SDS011;3551;41.578;24.706;2024-03-17T01:11:17;14.90;;;8.48;;
3463;SDS011;3551;41.578;24.706;2024-03-17T01:13:44;15.60;;;9.75;;
3463;SDS011;3551;41.578;24.706;2024-03-17T01:16:13;17.60;;;9.38;;
3463;SDS011;3551;41.578;24.706;2024-03-17T01:18:39;16.48;;;9.85;;
3463;SDS011;3551;41.578;24.706;2024-03-17T01:21:08;17.23;;;9.93;;
3463;SDS011;3551;41.578;24.706;2024-03-17T01:23:34;19.23;;;10.33;;
3463;SDS011;3551;41.578;24.706;2024-03-17T01:26:01;17.25;;;10.18;;
3463;SDS011;3551;41.578;24.706;2024-03-17T01:28:26;19.23;;;10.23;;
3463;SDS011;3551;41.578;24.706;2024-03-17T01:30:53;22.08;;;10.48;;
3463;SDS011;3551;41.578;24.706;2024-03-17T01:33:21;20.57;;;10.50;;
3463;SDS011;3551;41.578;24.706;2024-03-17T01:35:47;19.58;;;10.63;;
3463;SDS011;3551;41.578;24.706;2024-03-17T01:38:13;18.17;;;10.47;;
3463;SDS011;3551;41.578;24.706;2024-03-17T01:40:40;17.45;;;10.20;;
3463;SDS011;3551;41.578;24.706;2024-03-17T01:43:08;17.90;;;11.00;;
3463;SDS011;3551;41.578;24.706;2024-03-17T01:45:36;16.70;;;10.43;;
3463;SDS011;3551;41.578;24.706;2024-03-17T01:48:02;20.35;;;10.23;;
3463;SDS011;3551;41.578;24.706;2024-03-17T01:50:32;27.83;;;11.55;;
3463;SDS011;3551;41.578;24.706;2024-03-17T01:53:01;17.98;;;9.13;;
3463;SDS011;3551;41.578;24.706;2024-03-17T01:55:31;17.30;;;10.02;;
3463;SDS011;3551;41.578;24.706;2024-03-17T01:57:58;16.92;;;9.50;;
3463;SDS011;3551;41.578;24.706;2024-03-17T02:00:25;16.27;;;10.07;;
3463;SDS011;3551;41.578;24.706;2024-03-17T02:02:52;19.30;;;9.73;;
3463;SDS011;3551;41.578;24.706;2024-03-17T02:05:19;23.25;;;10.30;;
3463;SDS011;3551;41.578;24.706;2024-03-17T02:07:46;28.83;;;10.70;;
3463;SDS011;3551;41.578;24.706;2024-03-17T02:10:13;22.38;;;10.57;;
3463;SDS011;3551;41.578;24.706;2024-03-17T02:12:40;18.13;;;10.20;;
3463;SDS011;3551;41.578;24.706;2024-03-17T02:15:07;17.35;;;10.18;;
3463;SDS011;3551;41.578;24.706;2024-03-17T02:17:33;36.47;;;10.35;;
3463;SDS011;3551;41.578;24.706;2024-03-17T02:20:00;17.90;;;10.25;;
3463;SDS011;3551;41.578;24.706;2024-03-17T02:22:29;15.15;;;8.77;;
3463;SDS011;3551;41.578;24.706;2024-03-17T02:24:56;17.92;;;10.80;;
3463;SDS011;3551;41.578;24.706;2024-03-17T02:27:22;22.47;;;9.13;;
3463;SDS011;3551;41.578;24.706;2024-03-17T02:29:49;16.45;;;9.07;;
3463;SDS011;3551;41.578;24.706;2024-03-17T02:32:15;18.53;;;9.70;;
3463;SDS011;3551;41.578;24.706;2024-03-17T02:34:42;18.70;;;9.32;;
3463;SDS011;3551;41.578;24.706;2024-03-17T02:37:09;17.05;;;9.43;;
3463;SDS011;3551;41.578;24.706;2024-03-17T02:39:38;18.52;;;9.60;;
3463;SDS011;3551;41.578;24.706;2024-03-17T02:42:05;17.77;;;9.82;;
3463;SDS011;3551;41.578;24.706;2024-03-17T02:44:33;13.88;;;9.05;;
3463;SDS011;3551;41.578;24.706;2024-03-17T02:47:02;14.65;;;8.95;;
3463;SDS011;3551;41.578;24.706;2024-03-17T02:49:30;17.88;;;9.52;;
3463;SDS011;3551;41.578;24.706;2024-03-17T02:52:02;15.32;;;9.75;;
3463;SDS011;3551;41.578;24.706;2024-03-17T02:54:29;12.50;;;8.95;;
3463;SDS011;3551;41.578;24.706;2024-03-17T02:56:58;13.30;;;8.95;;
3463;SDS011;3551;41.578;24.706;2024-03-17T02:59:25;15.93;;;9.20;;
3463;SDS011;3551;41.578;24.706;2024-03-17T03:01:52;16.23;;;8.90;;
3463;SDS011;3551;41.578;24.706;2024-03-17T03:04:19;16.67;;;9.18;;
3463;SDS011;3551;41.578;24.706;2024-03-17T03:06:46;15.10;;;9.05;;
3463;SDS011;3551;41.578;24.706;2024-03-17T03:09:14;14.80;;;8.98;;
3463;SDS011;3551;41.578;24.706;2024-03-17T03:11:46;13.38;;;8.88;;
3463;SDS011;3551;41.578;24.706;2024-03-17T03:14:14;19.20;;;10.25;;
3463;SDS011;3551;41.578;24.706;2024-03-17T03:16:41;16.98;;;9.40;;
3463;SDS011;3551;41.578;24.706;2024-03-17T03:19:08;14.13;;;8.73;;
3463;SDS011;3551;41.578;24.706;2024-03-17T03:21:35;16.90;;;9.15;;
3463;SDS011;3551;41.578;24.706;2024-03-17T03:24:02;17.90;;;9.10;;
3463;SDS011;3551;41.578;24.706;2024-03-17T03:26:29;16.30;;;8.90;;
3463;SDS011;3551;41.578;24.706;2024-03-17T03:28:56;20.13;;;9.80;;
3463;SDS011;3551;41.578;24.706;2024-03-17T03:31:25;19.42;;;9.57;;
3463;SDS011;3551;41.578;24.706;2024-03-17T03:33:52;18.27;;;9.70;;
3463;SDS011;3551;41.578;24.706;2024-03-17T03:36:19;17.52;;;8.77;;
3463;SDS011;3551;41.578;24.706;2024-03-17T03:38:46;18.70;;;10.10;;
3463;SDS011;3551;41.578;24.706;2024-03-17T03:41:14;16.83;;;9.40;;
3463;SDS011;3551;41.578;24.706;2024-03-17T03:43:41;17.77;;;9.73;;
3463;SDS011;3551;41.578;24.706;2024-03-17T03:46:09;18.88;;;10.65;;
3463;SDS011;3551;41.578;24.706;2024-03-17T03:48:38;20.38;;;11.55;;
3463;SDS011;3551;41.578;24.706;2024-03-17T03:51:05;18.70;;;10.00;;
3463;SDS011;3551;41.578;24.706;2024-03-17T03:53:33;21.40;;;10.88;;
3463;SDS011;3551;41.578;24.706;2024-03-17T03:56:02;21.75;;;11.63;;
3463;SDS011;3551;41.578;24.706;2024-03-17T03:58:31;21.00;;;11.45;;
3463;SDS011;3551;41.578;24.706;2024-03-17T04:00:59;19.75;;;10.27;;
3463;SDS011;3551;41.578;24.706;2024-03-17T04:03:27;16.42;;;9.38;;
3463;SDS011;3551;41.578;24.706;2024-03-17T04:06:01;18.73;;;10.40;;
3463;SDS011;3551;41.578;24.706;2024-03-17T04:08:30;16.45;;;9.38;;
3463;SDS011;3551;41.578;24.706;2024-03-17T04:10:57;17.67;;;9.52;;
3463;SDS011;3551;41.578;24.706;2024-03-17T04:13:24;17.77;;;9.23;;
3463;SDS011;3551;41.578;24.706;2024-03-17T04:15:51;17.90;;;10.13;;
3463;SDS011;3551;41.578;24.706;2024-03-17T04:18:22;21.05;;;10.60;;
3463;SDS011;3551;41.578;24.706;2024-03-17T04:20:50;14.80;;;8.98;;
3463;SDS011;3551;41.578;24.706;2024-03-17T04:23:19;16.08;;;9.68;;
3463;SDS011;3551;41.578;24.706;2024-03-17T04:25:47;18.30;;;9.60;;
3463;SDS011;3551;41.578;24.706;2024-03-17T04:28:14;16.95;;;8.45;;
3463;SDS011;3551;41.578;24.706;2024-03-17T04:30:41;15.18;;;9.13;;
3463;SDS011;3551;41.578;24.706;2024-03-17T04:33:09;18.73;;;9.93;;
3463;SDS011;3551;41.578;24.706;2024-03-17T04:35:36;17.55;;;10.23;;
3463;SDS011;3551;41.578;24.706;2024-03-17T04:38:03;17.92;;;9.65;;
3463;SDS011;3551;41.578;24.706;2024-03-17T04:40:32;20.20;;;9.90;;
3463;SDS011;3551;41.578;24.706;2024-03-17T04:42:59;18.50;;;10.38;;
3463;SDS011;3551;41.578;24.706;2024-03-17T04:45:26;19.20;;;10.02;;
3463;SDS011;3551;41.578;24.706;2024-03-17T04:47:53;24.05;;;10.32;;
3463;SDS011;3551;41.578;24.706;2024-03-17T04:50:20;14.70;;;9.15;;
3463;SDS011;3551;41.578;24.706;2024-03-17T04:52:47;16.90;;;9.13;;
3463;SDS011;3551;41.578;24.706;2024-03-17T04:55:14;15.85;;;10.25;;
3463;SDS011;3551;41.578;24.706;2024-03-17T04:57:45;14.82;;;8.82;;
3463;SDS011;3551;41.578;24.706;2024-03-17T05:00:12;14.80;;;8.60;;
3463;SDS011;3551;41.578;24.706;2024-03-17T05:02:43;20.92;;;8.90;;
3463;SDS011;3551;41.578;24.706;2024-03-17T05:05:10;16.30;;;9.15;;
3463;SDS011;3551;41.578;24.706;2024-03-17T05:07:36;19.27;;;9.68;;
3463;SDS011;3551;41.578;24.706;2024-03-17T05:10:04;18.52;;;9.45;;
3463;SDS011;3551;41.578;24.706;2024-03-17T05:12:32;16.25;;;8.85;;
3463;SDS011;3551;41.578;24.706;2024-03-17T05:15:00;16.60;;;9.68;;
3463;SDS011;3551;41.578;24.706;2024-03-17T05:17:29;16.30;;;9.55;;
3463;SDS011;3551;41.578;24.706;2024-03-17T05:19:56;18.27;;;9.88;;
3463;SDS011;3551;41.578;24.706;2024-03-17T05:22:22;14.70;;;9.48;;
3463;SDS011;3551;41.578;24.706;2024-03-17T05:24:49;13.15;;;8.95;;
3463;SDS011;3551;41.578;24.706;2024-03-17T05:27:16;14.60;;;8.50;;
3463;SDS011;3551;41.578;24.706;2024-03-17T05:29:43;16.48;;;9.52;;
3463;SDS011;3551;41.578;24.706;2024-03-17T05:32:11;15.65;;;9.18;;
3463;SDS011;3551;41.578;24.706;2024-03-17T05:34:38;16.60;;;9.75;;
3463;SDS011;3551;41.578;24.706;2024-03-17T05:37:05;27.33;;;11.93;;
3463;SDS011;3551;41.578;24.706;2024-03-17T05:39:32;18.63;;;10.68;;
3463;SDS011;3551;41.578;24.706;2024-03-17T05:41:59;23.58;;;11.70;;
3463;SDS011;3551;41.578;24.706;2024-03-17T05:44:28;25.30;;;12.23;;
3463;SDS011;3551;41.578;24.706;2024-03-17T05:47:05;27.85;;;13.18;;
3463;SDS011;3551;41.578;24.706;2024-03-17T05:49:35;29.10;;;12.98;;
3463;SDS011;3551;41.578;24.706;2024-03-17T05:52:02;22.75;;;12.55;;
3463;SDS011;3551;41.578;24.706;2024-03-17T05:54:29;19.85;;;11.15;;
3463;SDS011;3551;41.578;24.706;2024-03-17T05:56:56;17.98;;;11.73;;
3463;SDS011;3551;41.578;24.706;2024-03-17T05:59:22;22.80;;;12.80;;
3463;SDS011;3551;41.578;24.706;2024-03-17T06:01:49;24.98;;;12.90;;
3463;SDS011;3551;41.578;24.706;2024-03-17T06:04:16;22.80;;;13.00;;
3463;SDS011;3551;41.578;24.706;2024-03-17T06:06:45;31.95;;;13.27;;
3463;SDS011;3551;41.578;24.706;2024-03-17T06:09:14;23.05;;;13.68;;
3463;SDS011;3551;41.578;24.706;2024-03-17T06:11:43;23.77;;;12.40;;
3463;SDS011;3551;41.578;24.706;2024-03-17T06:14:12;24.60;;;13.02;;
3463;SDS011;3551;41.578;24.706;2024-03-17T06:16:39;24.88;;;13.88;;
3463;SDS011;3551;41.578;24.706;2024-03-17T06:19:06;27.30;;;13.07;;
3463;SDS011;3551;41.578;24.706;2024-03-17T06:21:33;23.95;;;13.43;;
3463;SDS011;3551;41.578;24.706;2024-03-17T06:24:02;21.52;;;13.25;;
3463;SDS011;3551;41.578;24.706;2024-03-17T06:26:29;24.42;;;14.90;;
3463;SDS011;3551;41.578;24.706;2024-03-17T06:28:58;26.95;;;14.05;;
3463;SDS011;3551;41.578;24.706;2024-03-17T06:31:25;24.50;;;15.55;;
3463;SDS011;3551;41.578;24.706;2024-03-17T06:33:52;26.05;;;15.45;;
3463;SDS011;3551;41.578;24.706;2024-03-17T06:36:19;24.83;;;15.57;;
3463;SDS011;3551;41.578;24.706;2024-03-17T06:38:46;35.33;;;17.05;;
3463;SDS011;3551;41.578;24.706;2024-03-17T06:41:15;35.13;;;17.02;;
3463;SDS011;3551;41.578;24.706;2024-03-17T06:43:42;25.02;;;16.23;;
3463;SDS011;3551;41.578;24.706;2024-03-17T06:46:09;26.33;;;15.45;;
3463;SDS011;3551;41.578;24.706;2024-03-17T06:48:36;29.67;;;16.10;;
3463;SDS011;3551;41.578;24.706;2024-03-17T06:51:03;29.87;;;16.70;;
3463;SDS011;3551;41.578;24.706;2024-03-17T06:53:31;24.83;;;15.73;;
3463;SDS011;3551;41.578;24.706;2024-03-17T06:55:59;25.87;;;14.90;;
3463;SDS011;3551;41.578;24.706;2024-03-17T06:58:27;23.90;;;12.27;;
3463;SDS011;3551;41.578;24.706;2024-03-17T07:00:55;19.60;;;13.17;;
3463;SDS011;3551;41.578;24.706;2024-03-17T07:03:23;24.67;;;13.47;;
3463;SDS011;3551;41.578;24.706;2024-03-17T07:05:55;19.23;;;12.07;;
3463;SDS011;3551;41.578;24.706;2024-03-17T07:08:22;18.50;;;10.30;;
3463;SDS011;3551;41.578;24.706;2024-03-17T07:11:00;19.47;;;12.23;;
3463;SDS011;3551;41.578;24.706;2024-03-17T07:13:30;25.60;;;15.00;;
3463;SDS011;3551;41.578;24.706;2024-03-17T07:15:58;25.30;;;15.13;;
3463;SDS011;3551;41.578;24.706;2024-03-17T07:18:26;30.90;;;17.80;;
3463;SDS011;3551;41.578;24.706;2024-03-17T07:20:52;40.43;;;24.10;;
3463;SDS011;3551;41.578;24.706;2024-03-17T07:23:19;39.00;;;22.40;;
3463;SDS011;3551;41.578;24.706;2024-03-17T07:25:53;31.43;;;20.73;;
3463;SDS011;3551;41.578;24.706;2024-03-17T07:28:20;33.10;;;20.07;;
3463;SDS011;3551;41.578;24.706;2024-03-17T07:30:49;30.77;;;17.50;;
3463;SDS011;3551;41.578;24.706;2024-03-17T07:33:17;26.53;;;17.47;;
3463;SDS011;3551;41.578;24.706;2024-03-17T07:35:49;24.90;;;17.03;;
3463;SDS011;3551;41.578;24.706;2024-03-17T07:38:17;29.20;;;18.53;;
3463;SDS011;3551;41.578;24.706;2024-03-17T07:40:45;26.60;;;16.80;;
3463;SDS011;3551;41.578;24.706;2024-03-17T07:43:22;27.33;;;18.23;;
3463;SDS011;3551;41.578;24.706;2024-03-17T07:45:57;29.73;;;16.70;;
3463;SDS011;3551;41.578;24.706;2024-03-17T07:48:25;32.40;;;18.20;;
3463;SDS011;3551;41.578;24.706;2024-03-17T07:50:55;32.33;;;18.30;;
3463;SDS011;3551;41.578;24.706;2024-03-17T07:53:23;30.70;;;19.83;;
3463;SDS011;3551;41.578;24.706;2024-03-17T07:55:58;39.80;;;20.87;;
3463;SDS011;3551;41.578;24.706;2024-03-17T07:58:26;35.07;;;21.43;;
3463;SDS011;3551;41.578;24.706;2024-03-17T08:00:58;33.23;;;21.13;;
3463;SDS011;3551;41.578;24.706;2024-03-17T08:03:26;37.37;;;20.97;;
3463;SDS011;3551;41.578;24.706;2024-03-17T08:05:53;41.10;;;24.07;;
3463;SDS011;3551;41.578;24.706;2024-03-17T08:08:20;37.33;;;23.60;;
3463;SDS011;3551;41.578;24.706;2024-03-17T08:10:47;34.97;;;20.60;;
3463;SDS011;3551;41.578;24.706;2024-03-17T08:13:14;32.70;;;20.83;;
3463;SDS011;3551;41.578;24.706;2024-03-17T08:15:42;27.20;;;16.37;;
3463;SDS011;3551;41.578;24.706;2024-03-17T08:18:11;19.50;;;11.13;;
3463;SDS011;3551;41.578;24.706;2024-03-17T08:20:38;17.70;;;11.80;;
3463;SDS011;3551;41.578;24.706;2024-03-17T08:23:05;15.17;;;10.00;;
3463;SDS011;3551;41.578;24.706;2024-03-17T08:25:32;14.30;;;9.10;;
3463;SDS011;3551;41.578;24.706;2024-03-17T08:28:00;13.00;;;8.20;;
3463;SDS011;3551;41.578;24.706;2024-03-17T08:30:27;16.07;;;10.73;;
3463;SDS011;3551;41.578;24.706;2024-03-17T08:32:54;14.13;;;9.67;;
3463;SDS011;3551;41.578;24.706;2024-03-17T08:35:22;17.00;;;10.27;;
3463;SDS011;3551;41.578;24.706;2024-03-17T08:37:49;25.73;;;11.77;;
3463;SDS011;3551;41.578;24.706;2024-03-17T08:40:16;16.30;;;12.00;;
3463;SDS011;3551;41.578;24.706;2024-03-17T08:42:43;19.20;;;11.33;;
3463;SDS011;3551;41.578;24.706;2024-03-17T08:45:10;22.53;;;10.40;;
3463;SDS011;3551;41.578;24.706;2024-03-17T08:47:38;29.30;;;10.70;;
3463;SDS011;3551;41.578;24.706;2024-03-17T08:50:05;14.43;;;9.97;;
3463;SDS011;3551;41.578;24.706;2024-03-17T08:52:34;21.10;;;11.40;;
3463;SDS011;3551;41.578;24.706;2024-03-17T08:55:01;19.27;;;11.13;;
3463;SDS011;3551;41.578;24.706;2024-03-17T08:57:31;20.43;;;10.90;;
3463;SDS011;3551;41.578;24.706;2024-03-17T08:59:58;17.27;;;11.10;;
3463;SDS011;3551;41.578;24.706;2024-03-17T09:02:25;18.10;;;10.50;;
3463;SDS011;3551;41.578;24.706;2024-03-17T09:04:52;18.60;;;10.63;;
3463;SDS011;3551;41.578;24.706;2024-03-17T09:07:19;19.10;;;10.13;;
3463;SDS011;3551;41.578;24.706;2024-03-17T09:09:47;13.67;;;8.90;;
3463;SDS011;3551;41.578;24.706;2024-03-17T09:12:14;13.50;;;9.23;;
3463;SDS011;3551;41.578;24.706;2024-03-17T09:14:41;14.53;;;9.20;;
3463;SDS011;3551;41.578;24.706;2024-03-17T09:17:08;19.63;;;9.00;;
3463;SDS011;3551;41.578;24.706;2024-03-17T09:19:35;12.27;;;8.10;;
3463;SDS011;3551;41.578;24.706;2024-03-17T09:22:02;12.43;;;8.10;;
3463;SDS011;3551;41.578;24.706;2024-03-17T09:24:30;11.60;;;7.20;;
3463;SDS011;3551;41.578;24.706;2024-03-17T09:26:58;11.50;;;6.57;;
3463;SDS011;3551;41.578;24.706;2024-03-17T09:29:25;13.17;;;9.07;;
3463;SDS011;3551;41.578;24.706;2024-03-17T09:31:52;7.97;;;5.70;;
3463;SDS011;3551;41.578;24.706;2024-03-17T09:34:19;13.33;;;7.00;;
3463;SDS011;3551;41.578;24.706;2024-03-17T09:36:46;11.60;;;6.53;;
3463;SDS011;3551;41.578;24.706;2024-03-17T09:39:12;11.57;;;7.73;;
3463;SDS011;3551;41.578;24.706;2024-03-17T09:41:39;10.20;;;6.90;;
3463;SDS011;3551;41.578;24.706;2024-03-17T09:44:11;11.20;;;7.53;;
3463;SDS011;3551;41.578;24.706;2024-03-17T09:46:39;7.70;;;5.63;;
3463;SDS011;3551;41.578;24.706;2024-03-17T09:49:08;7.53;;;5.27;;
3463;SDS011;3551;41.578;24.706;2024-03-17T09:51:40;7.57;;;4.93;;
3463;SDS011;3551;41.578;24.706;2024-03-17T09:54:10;10.70;;;5.90;;
3463;SDS011;3551;41.578;24.706;2024-03-17T09:56:44;9.77;;;6.03;;
3463;SDS011;3551;41.578;24.706;2024-03-17T09:59:12;11.77;;;5.67;;
3463;SDS011;3551;41.578;24.706;2024-03-17T10:01:39;10.70;;;6.03;;
3463;SDS011;3551;41.578;24.706;2024-03-17T10:04:08;9.60;;;5.00;;
3463;SDS011;3551;41.578;24.706;2024-03-17T10:06:43;10.43;;;5.80;;
3463;SDS011;3551;41.578;24.706;2024-03-17T10:09:14;8.33;;;5.80;;
3463;SDS011;3551;41.578;24.706;2024-03-17T10:11:46;9.67;;;5.07;;
3463;SDS011;3551;41.578;24.706;2024-03-17T10:14:16;6.83;;;4.80;;
3463;SDS011;3551;41.578;24.706;2024-03-17T10:16:43;9.20;;;4.80;;
3463;SDS011;3551;41.578;24.706;2024-03-17T10:19:11;10.13;;;5.73;;
3463;SDS011;3551;41.578;24.706;2024-03-17T10:21:39;9.50;;;5.60;;
3463;SDS011;3551;41.578;24.706;2024-03-17T10:24:08;6.40;;;4.20;;
3463;SDS011;3551;41.578;24.706;2024-03-17T10:26:37;8.63;;;5.40;;
3463;SDS011;3551;41.578;24.706;2024-03-17T10:29:16;13.63;;;5.63;;
3463;SDS011;3551;41.578;24.706;2024-03-17T10:31:48;10.10;;;6.50;;
3463;SDS011;3551;41.578;24.706;2024-03-17T10:34:15;8.87;;;6.07;;
3463;SDS011;3551;41.578;24.706;2024-03-17T10:36:43;7.47;;;4.80;;
3463;SDS011;3551;41.578;24.706;2024-03-17T10:39:25;8.60;;;5.43;;
3463;SDS011;3551;41.578;24.706;2024-03-17T10:41:56;7.70;;;4.93;;
3463;SDS011;3551;41.578;24.706;2024-03-17T10:44:26;9.17;;;4.40;;
3463;SDS011;3551;41.578;24.706;2024-03-17T10:46:54;12.00;;;4.87;;
3463;SDS011;3551;41.578;24.706;2024-03-17T10:49:23;9.43;;;5.00;;
3463;SDS011;3551;41.578;24.706;2024-03-17T10:51:55;14.80;;;5.23;;
3463;SDS011;3551;41.578;24.706;2024-03-17T10:54:25;7.10;;;3.53;;
3463;SDS011;3551;41.578;24.706;2024-03-17T10:56:54;7.67;;;4.43;;
3463;SDS011;3551;41.578;24.706;2024-03-17T10:59:25;7.80;;;5.03;;
3463;SDS011;3551;41.578;24.706;2024-03-17T11:02:08;7.93;;;4.37;;
3463;SDS011;3551;41.578;24.706;2024-03-17T11:04:49;7.60;;;4.40;;
3463;SDS011;3551;41.578;24.706;2024-03-17T11:07:17;7.60;;;4.50;;
3463;SDS011;3551;41.578;24.706;2024-03-17T11:09:45;7.00;;;4.87;;
3463;SDS011;3551;41.578;24.706;2024-03-17T11:21:05;8.50;;;5.47;;
3463;SDS011;3551;41.578;24.706;2024-03-17T11:23:40;9.50;;;5.00;;
3463;SDS011;3551;41.578;24.706;2024-03-17T11:26:08;11.00;;;4.17;;
3463;SDS011;3551;41.578;24.706;2024-03-17T11:28:45;8.80;;;4.40;;
3463;SDS011;3551;41.578;24.706;2024-03-17T11:31:37;10.23;;;4.20;;
3463;SDS011;3551;41.578;24.706;2024-03-17T11:34:30;6.53;;;4.40;;
3463;SDS011;3551;41.578;24.706;2024-03-17T11:37:02;8.80;;;4.60;;
3463;SDS011;3551;41.578;24.706;2024-03-17T11:39:49;6.83;;;4.00;;
3463;SDS011;3551;41.578;24.706;2024-03-17T11:42:18;7.73;;;4.43;;
3463;SDS011;3551;41.578;24.706;2024-03-17T11:44:55;5.93;;;3.87;;
3463;SDS011;3551;41.578;24.706;2024-03-17T11:47:25;8.07;;;4.60;;
3463;SDS011;3551;41.578;24.706;2024-03-17T11:50:02;9.87;;;6.53;;
3463;SDS011;3551;41.578;24.706;2024-03-17T11:52:29;18.40;;;7.40;;
3463;SDS011;3551;41.578;24.706;2024-03-17T11:54:56;11.47;;;7.00;;
3463;SDS011;3551;41.578;24.706;2024-03-17T11:57:22;11.50;;;6.97;;
3463;SDS011;3551;41.578;24.706;2024-03-17T11:59:51;10.80;;;6.87;;
3463;SDS011;3551;41.578;24.706;2024-03-17T12:02:20;11.50;;;7.90;;
3463;SDS011;3551;41.578;24.706;2024-03-17T12:04:51;10.20;;;6.67;;
3463;SDS011;3551;41.578;24.706;2024-03-17T12:07:19;7.93;;;5.30;;
3463;SDS011;3551;41.578;24.706;2024-03-17T12:09:48;10.10;;;6.40;;
3463;SDS011;3551;41.578;24.706;2024-03-17T12:12:17;8.03;;;5.43;;
3463;SDS011;3551;41.578;24.706;2024-03-17T12:14:45;11.47;;;6.00;;
3463;SDS011;3551;41.578;24.706;2024-03-17T12:17:11;12.53;;;6.17;;
3463;SDS011;3551;41.578;24.706;2024-03-17T12:19:40;8.73;;;5.80;;
3463;SDS011;3551;41.578;24.706;2024-03-17T12:22:14;8.50;;;5.37;;
3463;SDS011;3551;41.578;24.706;2024-03-17T12:24:45;11.00;;;6.20;;
3463;SDS011;3551;41.578;24.706;2024-03-17T12:27:17;10.50;;;6.47;;
3463;SDS011;3551;41.578;24.706;2024-03-17T12:29:46;7.93;;;5.30;;
3463;SDS011;3551;41.578;24.706;2024-03-17T12:32:13;8.83;;;5.37;;
3463;SDS011;3551;41.578;24.706;2024-03-17T12:34:41;12.00;;;6.60;;
3463;SDS011;3551;41.578;24.706;2024-03-17T12:37:08;14.20;;;6.07;;
3463;SDS011;3551;41.578;24.706;2024-03-17T12:39:44;7.60;;;5.20;;
3463;SDS011;3551;41.578;24.706;2024-03-17T12:42:10;6.17;;;4.67;;
3463;SDS011;3551;41.578;24.706;2024-03-17T12:44:39;6.50;;;5.30;;
3463;SDS011;3551;41.578;24.706;2024-03-17T12:47:08;7.07;;;4.37;;
3463;SDS011;3551;41.578;24.706;2024-03-17T12:49:44;7.10;;;4.43;;
3463;SDS011;3551;41.578;24.706;2024-03-17T12:52:16;10.87;;;5.87;;
3463;SDS011;3551;41.578;24.706;2024-03-17T12:54:45;8.00;;;4.70;;
3463;SDS011;3551;41.578;24.706;2024-03-17T12:57:41;5.80;;;3.70;;
3463;SDS011;3551;41.578;24.706;2024-03-17T13:00:26;7.83;;;5.17;;
3463;SDS011;3551;41.578;24.706;2024-03-17T13:02:59;9.43;;;5.17;;
3463;SDS011;3551;41.578;24.706;2024-03-17T13:05:26;9.40;;;4.87;;
3463;SDS011;3551;41.578;24.706;2024-03-17T13:19:41;13.45;;;6.25;;
3463;SDS011;3551;41.578;24.706;2024-03-17T13:22:11;9.67;;;5.23;;
3463;SDS011;3551;41.578;24.706;2024-03-17T13:24:38;8.33;;;5.00;;
3463;SDS011;3551;41.578;24.706;2024-03-17T13:27:05;9.33;;;4.73;;
3463;SDS011;3551;41.578;24.706;2024-03-17T13:29:33;10.07;;;6.63;;
3463;SDS011;3551;41.578;24.706;2024-03-17T13:32:03;11.47;;;7.17;;
3463;SDS011;3551;41.578;24.706;2024-03-17T13:34:30;10.63;;;6.80;;
3463;SDS011;3551;41.578;24.706;2024-03-17T13:36:58;9.63;;;6.20;;
3463;SDS011;3551;41.578;24.706;2024-03-17T13:39:29;14.90;;;6.67;;
3463;SDS011;3551;41.578;24.706;2024-03-17T13:41:57;9.83;;;6.47;;
3463;SDS011;3551;41.578;24.706;2024-03-17T13:44:28;11.20;;;7.17;;
3463;SDS011;3551;41.578;24.706;2024-03-17T13:46:55;15.07;;;7.30;;
3463;SDS011;3551;41.578;24.706;2024-03-17T13:49:22;11.87;;;6.27;;
3463;SDS011;3551;41.578;24.706;2024-03-17T13:51:49;12.00;;;6.57;;
3463;SDS011;3551;41.578;24.706;2024-03-17T13:54:17;14.07;;;6.90;;
3463;SDS011;3551;41.578;24.706;2024-03-17T13:56:46;12.00;;;7.37;;
3463;SDS011;3551;41.578;24.706;2024-03-17T13:59:13;14.17;;;8.20;;
3463;SDS011;3551;41.578;24.706;2024-03-17T14:01:40;12.43;;;7.87;;
3463;SDS011;3551;41.578;24.706;2024-03-17T14:04:12;12.67;;;7.90;;
3463;SDS011;3551;41.578;24.706;2024-03-17T14:06:40;11.50;;;7.43;;
3463;SDS011;3551;41.578;24.706;2024-03-17T14:09:07;15.10;;;8.63;;
3463;SDS011;3551;41.578;24.706;2024-03-17T14:11:37;13.30;;;8.20;;
3463;SDS011;3551;41.578;24.706;2024-03-17T14:14:04;16.10;;;7.83;;
3463;SDS011;3551;41.578;24.706;2024-03-17T14:16:31;14.57;;;8.10;;
3463;SDS011;3551;41.578;24.706;2024-03-17T14:18:59;12.63;;;6.67;;
3463;SDS011;3551;41.578;24.706;2024-03-17T14:21:26;8.40;;;5.60;;
3463;SDS011;3551;41.578;24.706;2024-03-17T14:23:54;15.83;;;7.70;;
3463;SDS011;3551;41.578;24.706;2024-03-17T14:26:22;18.53;;;10.10;;
3463;SDS011;3551;41.578;24.706;2024-03-17T14:42:12;17.20;;;11.77;;
3463;SDS011;3551;41.578;24.706;2024-03-17T14:44:40;21.20;;;10.63;;
3463;SDS011;3551;41.578;24.706;2024-03-17T14:47:10;17.80;;;11.40;;
3463;SDS011;3551;41.578;24.706;2024-03-17T14:49:37;16.27;;;10.47;;
3463;SDS011;3551;41.578;24.706;2024-03-17T14:52:08;13.63;;;9.47;;
